Time;durP1;ratioP1;P1;durP2;ratioP2;P2;SDS_P1;SDS_P2;PMS_P1;PMS_P2;Temp;Humidity;BMP_temperature;BMP_pressure;BME280_temperature;BME280_humidity;BME280_pressure;Samples;Min_cycle;Max_cycle;Signal;HPM_P1;HPM_P2
2022/04/14 00:01:06;;;;;;;7.43;4.90;;;;;;;;;;5091595;28;20704;-83
2022/04/14 00:03:33;;;;;;;9.37;4.63;;;;;;;;;;5092189;28;20225;-84
2022/04/14 00:06:00;;;;;;;7.63;4.90;;;;;;;;;;5091676;28;20239;-84
2022/04/14 00:08:28;;;;;;;5.83;4.43;;;;;;;;;;5092059;28;20224;-84
2022/04/14 00:10:55;;;;;;;7.53;4.73;;;;;;;;;;5099682;28;20795;-84
2022/04/14 00:13:22;;;;;;;4.90;4.00;;;;;;;;;;5093567;28;20204;-84
2022/04/14 00:15:49;;;;;;;5.40;4.03;;;;;;;;;;5092746;28;20229;-84
2022/04/14 00:18:16;;;;;;;6.37;4.13;;;;;;;;;;5092477;28;20961;-85
2022/04/14 00:20:43;;;;;;;5.27;4.40;;;;;;;;;;5091824;28;20243;-84
2022/04/14 00:23:11;;;;;;;7.80;4.57;;;;;;;;;;5091828;28;20216;-85
2022/04/14 00:25:39;;;;;;;5.50;4.23;;;;;;;;;;5091477;28;20700;-84
2022/04/14 00:28:06;;;;;;;8.97;4.67;;;;;;;;;;5091898;28;20232;-84
2022/04/14 00:30:33;;;;;;;7.17;4.27;;;;;;;;;;5091945;28;20281;-84
2022/04/14 00:33:01;;;;;;;7.93;4.50;;;;;;;;;;5095555;28;20216;-84
2022/04/14 00:35:28;;;;;;;6.80;4.30;;;;;;;;;;5094774;28;20286;-84
2022/04/14 00:37:55;;;;;;;7.03;4.57;;;;;;;;;;5095576;28;20261;-84
2022/04/14 00:40:22;;;;;;;8.17;4.87;;;;;;;;;;5094725;28;20306;-84
2022/04/14 00:42:51;;;;;;;10.03;4.67;;;;;;;;;;5095316;28;20189;-84
2022/04/14 00:45:18;;;;;;;7.47;4.57;;;;;;;;;;5095282;28;20232;-84
2022/04/14 00:47:45;;;;;;;11.53;4.23;;;;;;;;;;5095433;28;20607;-83
2022/04/14 00:50:13;;;;;;;5.80;4.23;;;;;;;;;;5094265;28;20233;-84
2022/04/14 00:52:44;;;;;;;6.60;4.30;;;;;;;;;;5095273;28;20232;-84
2022/04/14 00:55:11;;;;;;;6.23;4.30;;;;;;;;;;5094667;28;20235;-84
2022/04/14 00:57:38;;;;;;;7.10;4.43;;;;;;;;;;5094915;28;20204;-84
2022/04/14 01:00:07;;;;;;;5.60;4.70;;;;;;;;;;5081582;28;20232;-84
2022/04/14 01:02:35;;;;;;;7.77;4.93;;;;;;;;;;5063264;28;20260;-84
2022/04/14 01:05:04;;;;;;;6.60;4.67;;;;;;;;;;5053935;28;20234;-85
2022/04/14 01:07:31;;;;;;;6.63;4.53;;;;;;;;;;5062454;28;20232;-84
2022/04/14 01:09:58;;;;;;;11.67;4.57;;;;;;;;;;5066950;28;20237;-85
2022/04/14 01:12:26;;;;;;;8.97;5.03;;;;;;;;;;5054521;28;20593;-84
2022/04/14 01:14:53;;;;;;;6.37;4.17;;;;;;;;;;5054027;28;20234;-84
2022/04/14 01:17:21;;;;;;;9.03;5.03;;;;;;;;;;5054454;28;20225;-83
2022/04/14 01:19:48;;;;;;;8.37;4.93;;;;;;;;;;5053429;28;20697;-86
2022/04/14 01:22:19;;;;;;;5.77;4.67;;;;;;;;;;5054577;28;20202;-84
2022/04/14 01:24:48;;;;;;;9.40;4.93;;;;;;;;;;5053524;28;20735;-84
2022/04/14 01:27:15;;;;;;;6.77;4.80;;;;;;;;;;5054313;28;20210;-84
2022/04/14 01:29:42;;;;;;;5.27;4.63;;;;;;;;;;5053785;28;20576;-84
2022/04/14 01:32:10;;;;;;;6.17;5.10;;;;;;;;;;5053953;28;20213;-84
2022/04/14 01:34:37;;;;;;;4.77;4.37;;;;;;;;;;5054469;28;20240;-84
2022/04/14 01:37:04;;;;;;;8.07;4.33;;;;;;;;;;5054055;28;20214;-84
2022/04/14 01:39:32;;;;;;;10.40;4.73;;;;;;;;;;5053652;28;20218;-83
2022/04/14 01:42:00;;;;;;;7.10;5.03;;;;;;;;;;5053929;28;20217;-83
2022/04/14 01:44:27;;;;;;;5.40;4.50;;;;;;;;;;5053910;28;20621;-84
2022/04/14 01:46:54;;;;;;;5.30;4.60;;;;;;;;;;5053396;28;20237;-83
2022/04/14 01:49:21;;;;;;;9.23;5.23;;;;;;;;;;5053500;28;20585;-84
2022/04/14 01:51:49;;;;;;;6.43;4.77;;;;;;;;;;5053231;28;20242;-84
2022/04/14 01:54:16;;;;;;;7.83;4.63;;;;;;;;;;5053813;28;20269;-84
2022/04/14 01:56:44;;;;;;;6.53;4.33;;;;;;;;;;5053085;28;20238;-84
2022/04/14 01:59:12;;;;;;;6.77;5.00;;;;;;;;;;5053359;28;20206;-84
2022/04/14 02:01:39;;;;;;;5.63;5.03;;;;;;;;;;5053034;28;20238;-84
2022/04/14 02:04:07;;;;;;;8.23;5.70;;;;;;;;;;5053536;28;20233;-85
2022/04/14 02:06:35;;;;;;;6.80;4.67;;;;;;;;;;5052939;28;20319;-85
2022/04/14 02:09:02;;;;;;;9.63;5.90;;;;;;;;;;5053228;28;20214;-84
2022/04/14 02:11:29;;;;;;;6.27;4.80;;;;;;;;;;5052779;28;20242;-84
2022/04/14 02:13:56;;;;;;;5.97;4.97;;;;;;;;;;5053543;28;20264;-84
2022/04/14 02:16:25;;;;;;;8.27;4.97;;;;;;;;;;5052788;28;20241;-84
2022/04/14 02:18:52;;;;;;;9.57;5.07;;;;;;;;;;5053219;28;20199;-85
2022/04/14 02:21:19;;;;;;;9.50;4.93;;;;;;;;;;5052820;28;20241;-84
2022/04/14 02:23:46;;;;;;;5.27;4.77;;;;;;;;;;5052753;28;20734;-85
2022/04/14 02:26:15;;;;;;;7.43;5.37;;;;;;;;;;5052483;28;20714;-84
2022/04/14 02:28:42;;;;;;;5.37;4.87;;;;;;;;;;5052849;28;20229;-84
2022/04/14 02:31:09;;;;;;;10.30;5.70;;;;;;;;;;5052653;28;20242;-84
2022/04/14 02:33:38;;;;;;;7.23;5.07;;;;;;;;;;5052955;28;20622;-85
2022/04/14 02:36:06;;;;;;;5.43;4.23;;;;;;;;;;5052532;28;20337;-85
2022/04/14 02:38:33;;;;;;;5.63;5.03;;;;;;;;;;5053016;28;20205;-86
2022/04/14 02:41:00;;;;;;;7.50;5.30;;;;;;;;;;5052425;28;20705;-85
2022/04/14 02:43:27;;;;;;;9.57;5.17;;;;;;;;;;5052897;28;20241;-85
2022/04/14 02:45:55;;;;;;;10.87;5.80;;;;;;;;;;5052584;28;20725;-85
2022/04/14 02:48:22;;;;;;;5.73;4.97;;;;;;;;;;5057841;28;20567;-85
2022/04/14 02:50:50;;;;;;;7.40;5.27;;;;;;;;;;5056285;28;20246;-85
2022/04/14 02:53:17;;;;;;;6.83;4.83;;;;;;;;;;5055001;28;20213;-86
2022/04/14 02:55:44;;;;;;;7.80;5.10;;;;;;;;;;5051997;28;20244;-85
2022/04/14 02:58:12;;;;;;;9.10;4.83;;;;;;;;;;5052487;28;20565;-86
2022/04/14 03:00:39;;;;;;;7.17;6.00;;;;;;;;;;5052159;28;20237;-85
2022/04/14 03:03:06;;;;;;;7.70;6.57;;;;;;;;;;5052242;28;20675;-85
2022/04/14 03:05:33;;;;;;;15.73;8.47;;;;;;;;;;5051833;28;20702;-87
2022/04/14 03:08:02;;;;;;;10.93;7.23;;;;;;;;;;5052488;28;20233;-85
2022/04/14 03:10:29;;;;;;;12.27;7.73;;;;;;;;;;5051888;28;20237;-84
2022/04/14 03:12:57;;;;;;;10.60;7.40;;;;;;;;;;5052550;28;20233;-85
2022/04/14 03:15:25;;;;;;;14.93;8.37;;;;;;;;;;5051765;28;20792;-85
2022/04/14 03:17:53;;;;;;;11.23;7.47;;;;;;;;;;5052510;28;20210;-85
2022/04/14 03:20:20;;;;;;;15.57;9.23;;;;;;;;;;5051466;28;20313;-86
2022/04/14 03:22:47;;;;;;;10.23;7.83;;;;;;;;;;5052248;28;20214;-85
2022/04/14 03:25:15;;;;;;;14.53;7.97;;;;;;;;;;5051704;28;20240;-85
2022/04/14 03:27:43;;;;;;;7.73;6.30;;;;;;;;;;5052277;28;20265;-85
2022/04/14 03:30:11;;;;;;;11.83;6.63;;;;;;;;;;5051704;28;20321;-85
2022/04/14 03:32:41;;;;;;;12.43;7.63;;;;;;;;;;5052425;28;20218;-85
2022/04/14 03:35:08;;;;;;;14.37;7.10;;;;;;;;;;5058582;28;20241;-89
2022/04/14 03:37:36;;;;;;;11.40;7.70;;;;;;;;;;5054220;28;20293;-85
2022/04/14 03:40:03;;;;;;;12.43;6.80;;;;;;;;;;5053285;28;20686;-85
2022/04/14 03:42:31;;;;;;;10.80;6.50;;;;;;;;;;5053115;28;20209;-85
2022/04/14 03:44:58;;;;;;;9.73;6.10;;;;;;;;;;5052329;28;20245;-85
2022/04/14 03:47:26;;;;;;;10.57;6.47;;;;;;;;;;5052232;28;20256;-85
2022/04/14 03:49:53;;;;;;;8.93;6.47;;;;;;;;;;5051613;28;20230;-86
2022/04/14 03:52:20;;;;;;;9.07;6.37;;;;;;;;;;5052089;28;20206;-85
2022/04/14 03:54:47;;;;;;;12.70;7.10;;;;;;;;;;5051420;28;20241;-85
2022/04/14 03:57:14;;;;;;;14.40;8.17;;;;;;;;;;5052130;28;20210;-85
2022/04/14 03:59:43;;;;;;;12.50;7.50;;;;;;;;;;5051386;28;20202;-85
2022/04/14 04:02:10;;;;;;;11.17;7.83;;;;;;;;;;5058239;28;20197;-85
2022/04/14 04:04:37;;;;;;;9.97;7.50;;;;;;;;;;5068535;28;20231;-85
2022/04/14 04:07:04;;;;;;;10.30;7.13;;;;;;;;;;5067377;28;20576;-85
2022/04/14 04:09:33;;;;;;;8.77;6.40;;;;;;;;;;5071464;28;20308;-85
2022/04/14 04:12:00;;;;;;;10.80;6.97;;;;;;;;;;5075435;28;20205;-85
2022/04/14 04:14:28;;;;;;;12.37;6.83;;;;;;;;;;5074897;28;20328;-85
2022/04/14 04:16:56;;;;;;;13.90;7.57;;;;;;;;;;5074301;28;20209;-86
2022/04/14 04:19:23;;;;;;;11.20;8.20;;;;;;;;;;5092072;28;20228;-85
2022/04/14 04:21:50;;;;;;;11.17;8.33;;;;;;;;;;5094948;28;20228;-85
2022/04/14 04:24:17;;;;;;;14.37;8.67;;;;;;;;;;5094951;28;20232;-85
2022/04/14 04:26:44;;;;;;;12.23;9.20;;;;;;;;;;5083349;28;20233;-85
2022/04/14 04:29:11;;;;;;;15.97;8.90;;;;;;;;;;5075040;28;20268;-85
2022/04/14 04:31:38;;;;;;;17.63;9.80;;;;;;;;;;5073073;28;20260;-84
2022/04/14 04:34:07;;;;;;;12.97;10.30;;;;;;;;;;5069782;28;20228;-85
2022/04/14 04:36:34;;;;;;;19.60;10.63;;;;;;;;;;5074640;28;20236;-85
2022/04/14 04:39:01;;;;;;;15.43;10.97;;;;;;;;;;5055555;28;20233;-85
2022/04/14 04:41:29;;;;;;;12.93;10.30;;;;;;;;;;5062887;28;20229;-85
2022/04/14 04:43:56;;;;;;;16.00;10.80;;;;;;;;;;5075853;28;20259;-85
2022/04/14 04:46:23;;;;;;;23.13;14.53;;;;;;;;;;5074557;28;20244;-85
2022/04/14 04:48:50;;;;;;;20.50;14.00;;;;;;;;;;5071373;28;20217;-84
2022/04/14 04:51:19;;;;;;;15.83;12.30;;;;;;;;;;5075005;28;20293;-85
2022/04/14 04:53:46;;;;;;;23.20;15.97;;;;;;;;;;5062179;28;20230;-85
2022/04/14 04:56:13;;;;;;;46.23;25.43;;;;;;;;;;5057126;28;21905;-85
2022/04/14 04:58:40;;;;;;;38.23;22.10;;;;;;;;;;5070491;28;20213;-86
2022/04/14 05:01:07;;;;;;;45.87;26.00;;;;;;;;;;5054913;28;20240;-85
2022/04/14 05:03:34;;;;;;;57.87;30.63;;;;;;;;;;5055647;28;20226;-84
2022/04/14 05:06:01;;;;;;;62.27;31.87;;;;;;;;;;5054785;28;20234;-85
2022/04/14 05:08:30;;;;;;;66.60;31.93;;;;;;;;;;5062215;28;20229;-85
2022/04/14 05:10:57;;;;;;;54.33;27.83;;;;;;;;;;5074641;28;20233;-86
2022/04/14 05:13:24;;;;;;;67.57;32.67;;;;;;;;;;5074918;28;20243;-85
2022/04/14 05:15:51;;;;;;;74.20;34.70;;;;;;;;;;5074879;28;20662;-87
2022/04/14 05:18:18;;;;;;;70.80;31.43;;;;;;;;;;5056582;28;20210;-85
2022/04/14 05:20:45;;;;;;;76.60;35.03;;;;;;;;;;5071134;28;20240;-85
2022/04/14 05:23:12;;;;;;;76.37;33.60;;;;;;;;;;5075018;28;20209;-85
2022/04/14 05:25:41;;;;;;;88.93;37.77;;;;;;;;;;5074698;28;20558;-86
2022/04/14 05:28:09;;;;;;;88.80;37.70;;;;;;;;;;5074127;28;20212;-85
2022/04/14 05:30:36;;;;;;;94.00;40.37;;;;;;;;;;5073253;28;20241;-85
2022/04/14 05:33:05;;;;;;;112.03;45.87;;;;;;;;;;5074309;28;20213;-86
2022/04/14 05:35:32;;;;;;;114.43;46.40;;;;;;;;;;5073381;28;20312;-85
2022/04/14 05:37:59;;;;;;;110.60;45.50;;;;;;;;;;5074097;28;20210;-85
2022/04/14 05:40:26;;;;;;;117.27;48.33;;;;;;;;;;5072320;28;20229;-86
2022/04/14 05:42:55;;;;;;;126.90;49.80;;;;;;;;;;5074386;28;20802;-85
2022/04/14 05:45:23;;;;;;;116.80;49.03;;;;;;;;;;5073217;28;20606;-85
2022/04/14 05:47:50;;;;;;;120.93;48.93;;;;;;;;;;5075642;28;20861;-87
2022/04/14 05:50:17;;;;;;;119.90;49.90;;;;;;;;;;5073336;28;20233;-86
2022/04/14 05:52:44;;;;;;;125.10;49.73;;;;;;;;;;5077914;28;20205;-86
2022/04/14 05:55:11;;;;;;;117.63;47.00;;;;;;;;;;5075000;28;20229;-86
2022/04/14 05:57:38;;;;;;;131.90;52.20;;;;;;;;;;5074725;28;20604;-86
2022/04/14 06:00:07;;;;;;;119.17;49.97;;;;;;;;;;5072195;28;20225;-86
2022/04/14 06:02:34;;;;;;;127.73;49.77;;;;;;;;;;5074061;28;20623;-85
2022/04/14 06:05:01;;;;;;;129.00;49.70;;;;;;;;;;5071518;28;20685;-86
2022/04/14 06:07:28;;;;;;;126.33;51.63;;;;;;;;;;5073122;28;20674;-85
2022/04/14 06:09:56;;;;;;;114.00;45.83;;;;;;;;;;5073081;28;20236;-86
2022/04/14 06:12:23;;;;;;;108.43;47.47;;;;;;;;;;5082020;28;20208;-86
2022/04/14 06:14:50;;;;;;;123.03;50.13;;;;;;;;;;5073146;28;20244;-86
2022/04/14 06:17:19;;;;;;;126.60;48.17;;;;;;;;;;5075269;28;20264;-86
2022/04/14 06:19:46;;;;;;;114.80;45.67;;;;;;;;;;5071902;28;21223;-86
2022/04/14 06:22:13;;;;;;;131.03;50.53;;;;;;;;;;5080780;28;20202;-86
2022/04/14 06:24:40;;;;;;;107.23;46.27;;;;;;;;;;5084177;28;20240;-86
2022/04/14 06:27:07;;;;;;;115.33;46.07;;;;;;;;;;5095836;28;20819;-87
2022/04/14 06:29:34;;;;;;;107.30;44.87;;;;;;;;;;5091509;28;20298;-87
2022/04/14 06:32:01;;;;;;;115.07;47.63;;;;;;;;;;5064814;28;20214;-87
2022/04/14 06:34:31;;;;;;;92.60;40.13;;;;;;;;;;5052220;28;20226;-87
2022/04/14 06:36:58;;;;;;;98.73;41.37;;;;;;;;;;5072336;28;20205;-87
2022/04/14 06:39:25;;;;;;;101.07;41.37;;;;;;;;;;5072156;28;20206;-87
2022/04/14 06:41:52;;;;;;;88.53;40.60;;;;;;;;;;5071795;28;20225;-87
2022/04/14 06:44:19;;;;;;;93.70;39.13;;;;;;;;;;5072242;28;20229;-87
2022/04/14 06:46:46;;;;;;;81.03;38.17;;;;;;;;;;5052518;28;20261;-86
2022/04/14 06:49:13;;;;;;;86.07;38.37;;;;;;;;;;5056680;28;20214;-87
2022/04/14 06:51:41;;;;;;;79.17;35.10;;;;;;;;;;5055990;28;20258;-86
2022/04/14 06:54:08;;;;;;;74.93;35.60;;;;;;;;;;5054982;28;20237;-87
2022/04/14 06:56:35;;;;;;;72.13;36.33;;;;;;;;;;5056892;28;20240;-87
2022/04/14 06:59:02;;;;;;;66.37;34.63;;;;;;;;;;5052905;28;20205;-87
2022/04/14 07:01:30;;;;;;;64.60;34.03;;;;;;;;;;5062633;28;20310;-86
2022/04/14 07:03:58;;;;;;;57.43;31.63;;;;;;;;;;5082526;28;20231;-86
2022/04/14 07:06:25;;;;;;;51.93;30.27;;;;;;;;;;5076330;28;20253;-87
2022/04/14 07:08:53;;;;;;;46.30;28.93;;;;;;;;;;5079582;28;20227;-87
2022/04/14 07:11:20;;;;;;;53.13;28.73;;;;;;;;;;5077169;28;20243;-87
2022/04/14 07:13:47;;;;;;;47.17;27.40;;;;;;;;;;5073513;28;20232;-87
2022/04/14 07:16:14;;;;;;;41.67;25.07;;;;;;;;;;5073190;28;20240;-87
2022/04/14 07:18:41;;;;;;;41.40;25.83;;;;;;;;;;5067539;28;20222;-87
2022/04/14 07:21:09;;;;;;;40.67;23.33;;;;;;;;;;5053142;28;20237;-87
2022/04/14 07:23:36;;;;;;;34.23;22.47;;;;;;;;;;5052550;28;20249;-87
2022/04/14 07:26:04;;;;;;;31.27;21.30;;;;;;;;;;5053164;28;20241;-87
2022/04/14 07:28:31;;;;;;;33.80;20.87;;;;;;;;;;5053675;28;20206;-87
2022/04/14 07:30:58;;;;;;;36.50;21.63;;;;;;;;;;5054356;28;20237;-88
2022/04/14 07:33:25;;;;;;;30.97;21.53;;;;;;;;;;5053420;28;20202;-87
2022/04/14 07:35:52;;;;;;;32.00;21.00;;;;;;;;;;5053034;28;20780;-87
2022/04/14 07:38:20;;;;;;;28.17;20.87;;;;;;;;;;5053798;28;20213;-87
2022/04/14 07:40:47;;;;;;;30.80;19.53;;;;;;;;;;5056209;28;20233;-87
2022/04/14 07:43:15;;;;;;;29.37;19.80;;;;;;;;;;5057848;28;20569;-87
2022/04/14 07:45:43;;;;;;;30.60;20.43;;;;;;;;;;5057892;28;20238;-87
2022/04/14 07:48:10;;;;;;;29.43;19.43;;;;;;;;;;5058475;28;20593;-87
2022/04/14 07:50:37;;;;;;;26.83;19.10;;;;;;;;;;5057517;28;20333;-87
2022/04/14 07:53:04;;;;;;;31.07;19.53;;;;;;;;;;5057620;28;20202;-87
2022/04/14 07:55:32;;;;;;;26.77;19.03;;;;;;;;;;5057322;28;20238;-87
2022/04/14 07:58:01;;;;;;;26.43;18.53;;;;;;;;;;5057418;28;20217;-87
2022/04/14 08:00:29;;;;;;;28.13;18.57;;;;;;;;;;5057525;28;20316;-87
2022/04/14 08:02:58;;;;;;;24.50;17.30;;;;;;;;;;5056336;28;20206;-87
2022/04/14 08:05:29;;;;;;;22.90;16.37;;;;;;;;;;5057214;28;20234;-87
2022/04/14 08:07:56;;;;;;;23.70;17.30;;;;;;;;;;5058334;28;20194;-88
2022/04/14 08:10:23;;;;;;;23.90;17.90;;;;;;;;;;5057685;28;20614;-88
2022/04/14 08:12:53;;;;;;;24.03;16.90;;;;;;;;;;5061068;28;20206;-88
2022/04/14 08:15:20;;;;;;;25.73;18.83;;;;;;;;;;5073639;28;20682;-88
2022/04/14 08:17:49;;;;;;;24.83;15.63;;;;;;;;;;5066364;28;20198;-87
2022/04/14 08:20:17;;;;;;;22.23;16.97;;;;;;;;;;5059058;28;20523;-88
2022/04/14 08:22:48;;;;;;;25.77;16.07;;;;;;;;;;5058622;28;20218;-88
2022/04/14 08:25:16;;;;;;;22.53;16.30;;;;;;;;;;5057625;28;20233;-88
2022/04/14 08:27:44;;;;;;;20.40;14.97;;;;;;;;;;5058549;28;20206;-88
2022/04/14 08:30:12;;;;;;;19.67;15.67;;;;;;;;;;5057826;28;20237;-87
2022/04/14 08:32:39;;;;;;;21.87;15.93;;;;;;;;;;5057639;28;20241;-87
2022/04/14 08:35:08;;;;;;;21.53;14.77;;;;;;;;;;5058129;28;20242;-87
2022/04/14 08:37:35;;;;;;;22.13;14.60;;;;;;;;;;5076503;28;20204;-87
2022/04/14 08:40:06;;;;;;;16.43;13.23;;;;;;;;;;5072707;28;20237;-88
2022/04/14 08:42:37;;;;;;;19.03;14.33;;;;;;;;;;5069586;28;20233;-87
2022/04/14 08:45:05;;;;;;;18.83;14.97;;;;;;;;;;5065510;28;20240;-87
2022/04/14 08:47:33;;;;;;;17.60;13.30;;;;;;;;;;5056587;28;20222;-88
2022/04/14 08:50:00;;;;;;;19.20;14.30;;;;;;;;;;5055887;28;20230;-87
2022/04/14 08:52:29;;;;;;;18.27;14.30;;;;;;;;;;5055030;28;20206;-87
2022/04/14 08:54:56;;;;;;;19.40;13.73;;;;;;;;;;5055831;28;20237;-88
2022/04/14 08:57:23;;;;;;;17.33;12.87;;;;;;;;;;5056069;28;20823;-88
2022/04/14 08:59:51;;;;;;;16.87;12.77;;;;;;;;;;5055795;28;20233;-88
2022/04/14 09:02:19;;;;;;;17.07;12.57;;;;;;;;;;5055932;28;20213;-87
2022/04/14 09:04:46;;;;;;;14.10;12.07;;;;;;;;;;5055440;28;20362;-88
2022/04/14 09:07:14;;;;;;;15.88;10.93;;;;;;;;;;5055827;28;20210;-87
2022/04/14 09:09:42;;;;;;;15.23;11.03;;;;;;;;;;5055587;28;20226;-87
2022/04/14 09:12:11;;;;;;;14.07;10.43;;;;;;;;;;5056039;28;20206;-88
2022/04/14 09:14:38;;;;;;;15.23;11.10;;;;;;;;;;5074639;28;20244;-87
2022/04/14 09:17:05;;;;;;;15.07;10.88;;;;;;;;;;5080596;28;20204;-86
2022/04/14 09:19:33;;;;;;;12.70;9.95;;;;;;;;;;5086274;28;20200;-87
2022/04/14 09:22:00;;;;;;;16.50;10.43;;;;;;;;;;5076849;28;20205;-87
2022/04/14 09:24:39;;;;;;;16.85;10.80;;;;;;;;;;5075606;28;20233;-87
2022/04/14 09:27:08;;;;;;;14.70;10.88;;;;;;;;;;5076510;28;20208;-88
2022/04/14 09:29:35;;;;;;;12.48;9.68;;;;;;;;;;5072994;28;20229;-86
2022/04/14 09:32:02;;;;;;;12.52;10.10;;;;;;;;;;5076065;28;20205;-87
2022/04/14 09:34:45;;;;;;;13.55;10.20;;;;;;;;;;5074377;28;20260;-87
2022/04/14 09:37:12;;;;;;;10.88;9.40;;;;;;;;;;5075423;28;20212;-87
2022/04/14 09:39:53;;;;;;;11.35;9.63;;;;;;;;;;5091469;28;20201;-87
2022/04/14 09:42:23;;;;;;;12.25;9.95;;;;;;;;;;5091076;28;20204;-88
2022/04/14 09:44:51;;;;;;;12.68;9.98;;;;;;;;;;5096360;28;20225;-87
2022/04/14 09:47:24;;;;;;;12.80;9.25;;;;;;;;;;5102141;28;20205;-88
2022/04/14 09:49:51;;;;;;;14.05;9.90;;;;;;;;;;5094719;28;20237;-87
2022/04/14 09:52:18;;;;;;;12.63;9.35;;;;;;;;;;5093987;28;20197;-87
2022/04/14 09:54:46;;;;;;;10.50;9.40;;;;;;;;;;5109183;28;20600;-87
2022/04/14 09:57:13;;;;;;;13.82;9.70;;;;;;;;;;5114244;28;20257;-88
2022/04/14 09:59:41;;;;;;;11.80;9.50;;;;;;;;;;5112834;28;20201;-87
2022/04/14 10:02:10;;;;;;;12.98;9.40;;;;;;;;;;5105852;28;20234;-88
2022/04/14 10:04:37;;;;;;;14.88;9.00;;;;;;;;;;5105420;28;20236;-89
2022/04/14 10:07:06;;;;;;;11.52;9.18;;;;;;;;;;5116344;28;20216;-89
2022/04/14 10:09:33;;;;;;;15.70;9.25;;;;;;;;;;5100549;28;20215;-89
2022/04/14 10:12:00;;;;;;;12.77;8.57;;;;;;;;;;5094370;28;20205;-89
2022/04/14 10:14:27;;;;;;;12.00;9.93;;;;;;;;;;5093109;28;20731;-89
2022/04/14 10:16:57;;;;;;;9.93;8.32;;;;;;;;;;5094310;28;20557;-88
2022/04/14 10:19:24;;;;;;;11.40;9.27;;;;;;;;;;5093318;28;20647;-88
2022/04/14 10:21:52;;;;;;;12.38;9.18;;;;;;;;;;5093172;28;20731;-89
2022/04/14 10:24:19;;;;;;;14.02;9.05;;;;;;;;;;5092935;28;20327;-89
2022/04/14 10:26:47;;;;;;;12.55;9.32;;;;;;;;;;5093056;28;20275;-88
2022/04/14 10:29:14;;;;;;;10.88;8.52;;;;;;;;;;5094317;28;20204;-89
2022/04/14 10:31:42;;;;;;;9.68;8.63;;;;;;;;;;5093336;28;20237;-89
2022/04/14 10:34:11;;;;;;;9.55;7.95;;;;;;;;;;5093544;28;20253;-88
2022/04/14 10:36:39;;;;;;;13.52;8.80;;;;;;;;;;5093648;28;21009;-88
2022/04/14 10:39:07;;;;;;;10.95;8.15;;;;;;;;;;5094770;28;20262;-88
2022/04/14 10:41:35;;;;;;;9.55;7.90;;;;;;;;;;5093431;28;20228;-89
2022/04/14 10:44:02;;;;;;;10.95;8.40;;;;;;;;;;5093249;28;20236;-88
2022/04/14 10:46:33;;;;;;;11.73;7.95;;;;;;;;;;5092828;28;20232;-88
2022/04/14 10:49:15;;;;;;;10.05;7.82;;;;;;;;;;5092074;28;20216;-88
2022/04/14 10:51:44;;;;;;;10.80;7.97;;;;;;;;;;5090529;28;20240;-88
2022/04/14 10:54:12;;;;;;;10.38;8.40;;;;;;;;;;5092461;28;20225;-89
2022/04/14 10:56:49;;;;;;;9.27;7.55;;;;;;;;;;5092400;28;20828;-88
2022/04/14 10:59:17;;;;;;;8.90;7.47;;;;;;;;;;5085375;28;20205;-89
2022/04/14 11:01:55;;;;;;;8.98;7.75;;;;;;;;;;5076170;28;20705;-89
2022/04/14 11:04:29;;;;;;;10.80;7.65;;;;;;;;;;5071881;28;20232;-88
2022/04/14 11:06:59;;;;;;;11.20;7.47;;;;;;;;;;5071665;28;20213;-89
2022/04/14 11:09:49;;;;;;;10.13;7.70;;;;;;;;;;5071950;28;20294;-88
2022/04/14 11:12:18;;;;;;;10.00;6.70;;;;;;;;;;5071957;28;20574;-90
2022/04/14 11:14:46;;;;;;;6.80;5.50;;;;;;;;;;5071167;28;20261;-89
2022/04/14 11:17:32;;;;;;;7.18;4.65;;;;;;;;;;5072664;28;20208;-88
2022/04/14 11:20:13;;;;;;;7.15;4.88;;;;;;;;;;5055035;28;20229;-88
2022/04/14 11:22:55;;;;;;;6.15;4.47;;;;;;;;;;5053661;28;20225;-88
2022/04/14 11:25:44;;;;;;;7.60;4.90;;;;;;;;;;5052383;28;20241;-88
2022/04/14 11:28:18;;;;;;;6.60;4.38;;;;;;;;;;5060793;28;20205;-88
2022/04/14 11:30:45;;;;;;;4.82;3.28;;;;;;;;;;5079905;28;20297;-89
2022/04/14 11:33:14;;;;;;;4.15;3.50;;;;;;;;;;5072225;28;20209;-89
2022/04/14 11:35:45;;;;;;;4.28;3.05;;;;;;;;;;5071563;28;20263;-86
2022/04/14 11:38:44;;;;;;;5.20;2.83;;;;;;;;;;5072868;28;20213;-86
2022/04/14 11:41:28;;;;;;;4.10;2.17;;;;;;;;;;5065971;28;20585;-86
2022/04/14 11:43:56;;;;;;;3.28;2.40;;;;;;;;;;5052018;28;20234;-86
2022/04/14 11:46:23;;;;;;;3.72;2.80;;;;;;;;;;5051858;28;20233;-86
2022/04/14 11:48:50;;;;;;;6.05;2.58;;;;;;;;;;5052297;28;20237;-87
2022/04/14 11:51:18;;;;;;;3.05;2.40;;;;;;;;;;5051536;28;20685;-87
2022/04/14 11:53:45;;;;;;;3.47;1.83;;;;;;;;;;5051846;28;20225;-87
2022/04/14 11:56:16;;;;;;;4.10;2.22;;;;;;;;;;5051385;28;20233;-87
2022/04/14 11:58:45;;;;;;;2.78;2.38;;;;;;;;;;5051937;28;20252;-87
2022/04/14 12:01:12;;;;;;;4.38;2.88;;;;;;;;;;5051642;28;20229;-87
2022/04/14 12:03:39;;;;;;;3.13;2.60;;;;;;;;;;5051533;28;20225;-87
2022/04/14 12:06:08;;;;;;;2.78;2.53;;;;;;;;;;5052601;28;20828;-88
2022/04/14 12:08:35;;;;;;;4.47;3.00;;;;;;;;;;5053485;28;20241;-87
2022/04/14 12:11:03;;;;;;;3.42;2.83;;;;;;;;;;5073139;28;20425;-81
2022/04/14 12:13:33;;;;;;;4.60;2.85;;;;;;;;;;5071865;28;20240;-82
2022/04/14 12:16:02;;;;;;;5.22;3.10;;;;;;;;;;5073343;28;20261;-81
2022/04/14 12:18:29;;;;;;;3.92;2.38;;;;;;;;;;5073727;28;20685;-81
2022/04/14 12:20:57;;;;;;;3.05;2.20;;;;;;;;;;5073505;28;20232;-81
2022/04/14 12:23:24;;;;;;;4.05;1.95;;;;;;;;;;5072496;28;20224;-83
2022/04/14 12:25:52;;;;;;;5.07;2.20;;;;;;;;;;5073228;28;20292;-82
2022/04/14 12:28:19;;;;;;;3.65;1.90;;;;;;;;;;5082022;28;20205;-81
2022/04/14 12:30:47;;;;;;;2.10;1.90;;;;;;;;;;5082467;28;20237;-82
2022/04/14 12:33:15;;;;;;;7.55;2.75;;;;;;;;;;5078694;28;20696;-82
2022/04/14 12:35:43;;;;;;;3.58;2.10;;;;;;;;;;5077915;28;20241;-82
2022/04/14 12:38:14;;;;;;;4.30;1.85;;;;;;;;;;5077846;28;20700;-82
2022/04/14 12:40:53;;;;;;;3.17;1.50;;;;;;;;;;5077537;28;20233;-82
2022/04/14 12:43:24;;;;;;;3.53;1.75;;;;;;;;;;5076175;28;20331;-82
2022/04/14 12:45:51;;;;;;;2.50;1.50;;;;;;;;;;5076481;28;20704;-82
2022/04/14 12:48:30;;;;;;;4.25;1.30;;;;;;;;;;5076556;28;20212;-81
2022/04/14 12:50:57;;;;;;;1.55;1.42;;;;;;;;;;5076217;28;20233;-80
2022/04/14 12:53:25;;;;;;;2.22;1.48;;;;;;;;;;5075400;28;20209;-80
2022/04/14 12:55:53;;;;;;;2.53;1.25;;;;;;;;;;5074932;28;20229;-80
2022/04/14 12:58:20;;;;;;;1.33;1.00;;;;;;;;;;5074219;28;20665;-80
2022/04/14 13:00:47;;;;;;;2.13;1.30;;;;;;;;;;5075154;28;20229;-84
2022/04/14 13:03:19;;;;;;;2.15;0.93;;;;;;;;;;5076239;28;20624;-80
2022/04/14 13:05:47;;;;;;;1.70;0.80;;;;;;;;;;5076052;28;20244;-82
2022/04/14 13:08:14;;;;;;;3.97;1.00;;;;;;;;;;5075932;28;20208;-80
2022/04/14 13:10:43;;;;;;;2.97;0.90;;;;;;;;;;5074597;28;20237;-81
2022/04/14 13:13:11;;;;;;;1.20;0.80;;;;;;;;;;5073917;28;20209;-83
2022/04/14 13:15:38;;;;;;;0.95;0.40;;;;;;;;;;5058178;28;20619;-80
2022/04/14 13:18:05;;;;;;;1.17;0.90;;;;;;;;;;5073460;28;20689;-86
2022/04/14 13:20:33;;;;;;;1.10;0.85;;;;;;;;;;5072286;28;20229;-88
2022/04/14 13:23:02;;;;;;;1.85;0.90;;;;;;;;;;5073516;28;20557;-88
2022/04/14 13:25:29;;;;;;;1.80;0.80;;;;;;;;;;5073388;28;20847;-88
2022/04/14 13:27:56;;;;;;;2.90;1.50;;;;;;;;;;5073447;28;20205;-88
2022/04/14 13:30:23;;;;;;;1.75;0.73;;;;;;;;;;5073232;28;20714;-88
2022/04/14 13:32:51;;;;;;;1.85;0.93;;;;;;;;;;5073027;28;20227;-88
2022/04/14 13:35:18;;;;;;;1.05;0.63;;;;;;;;;;5073338;28;20260;-87
2022/04/14 13:37:45;;;;;;;0.88;0.80;;;;;;;;;;5073721;28;20202;-89
2022/04/14 13:40:14;;;;;;;0.90;0.80;;;;;;;;;;5073259;28;20308;-89
2022/04/14 13:42:41;;;;;;;4.05;1.08;;;;;;;;;;5074151;28;20210;-89
2022/04/14 13:45:09;;;;;;;1.92;0.80;;;;;;;;;;5053169;28;20234;-88
2022/04/14 13:47:37;;;;;;;0.70;0.57;;;;;;;;;;5053633;28;20206;-88
2022/04/14 13:50:05;;;;;;;1.15;0.70;;;;;;;;;;5053065;28;20241;-88
2022/04/14 13:52:32;;;;;;;1.15;0.75;;;;;;;;;;5060228;28;20238;-88
2022/04/14 13:54:59;;;;;;;1.30;0.80;;;;;;;;;;5052700;28;20254;-85
2022/04/14 13:57:28;;;;;;;3.95;1.30;;;;;;;;;;5053320;28;20194;-80
2022/04/14 13:59:55;;;;;;;1.17;0.80;;;;;;;;;;5053007;28;20233;-82
2022/04/14 14:02:22;;;;;;;69.28;20.38;;;;;;;;;;5064329;28;20202;-81
2022/04/14 14:04:49;;;;;;;5.20;1.30;;;;;;;;;;5074378;28;20237;-81
2022/04/14 14:07:16;;;;;;;1.95;1.30;;;;;;;;;;5076852;28;20271;-78
2022/04/14 14:09:43;;;;;;;58.72;21.70;;;;;;;;;;5076032;28;20745;-80
2022/04/14 14:12:11;;;;;;;11.57;5.63;;;;;;;;;;5076206;28;20236;-81
2022/04/14 14:14:39;;;;;;;6.82;3.58;;;;;;;;;;5075334;28;20229;-80
2022/04/14 14:17:06;;;;;;;5.38;3.33;;;;;;;;;;5074479;28;20630;-83
2022/04/14 14:19:33;;;;;;;3.22;1.20;;;;;;;;;;5072113;28;20205;-82
2022/04/14 14:22:01;;;;;;;2.55;1.67;;;;;;;;;;5069697;28;20678;-82
2022/04/14 14:24:29;;;;;;;1.40;1.30;;;;;;;;;;5076736;28;20237;-82
2022/04/14 14:26:56;;;;;;;2.17;1.90;;;;;;;;;;5075322;28;20189;-83
2022/04/14 14:29:23;;;;;;;4.32;2.00;;;;;;;;;;5073363;28;20687;-82
2022/04/14 14:31:51;;;;;;;2.15;1.80;;;;;;;;;;5072865;28;20236;-82
2022/04/14 14:34:18;;;;;;;2.85;2.20;;;;;;;;;;5073409;28;20225;-81
2022/04/14 14:36:47;;;;;;;2.22;2.03;;;;;;;;;;5072465;28;20233;-81